sensor_id;sensor_type;location;lat;lon;timestamp;temperature;humidity
19206;DHT22;59358;52.134;5.596;2024-01-30T00:00:24;8.20;99.90
19206;DHT22;59358;52.134;5.596;2024-01-30T00:02:51;8.10;99.90
19206;DHT22;59358;52.134;5.596;2024-01-30T00:05:18;8.10;99.90
19206;DHT22;59358;52.134;5.596;2024-01-30T00:07:46;8.10;99.90
19206;DHT22;59358;52.134;5.596;2024-01-30T00:10:13;8.00;99.90
19206;DHT22;59358;52.134;5.596;2024-01-30T00:12:40;8.00;99.90
19206;DHT22;59358;52.134;5.596;2024-01-30T00:15:07;8.00;99.90
19206;DHT22;59358;52.134;5.596;2024-01-30T00:17:35;8.00;99.90
19206;DHT22;59358;52.134;5.596;2024-01-30T00:20:03;8.00;99.90
19206;DHT22;59358;52.134;5.596;2024-01-30T00:22:31;8.00;99.90
19206;DHT22;59358;52.134;5.596;2024-01-30T00:24:59;8.00;99.90
19206;DHT22;59358;52.134;5.596;2024-01-30T00:27:26;7.90;99.90
19206;DHT22;59358;52.134;5.596;2024-01-30T00:29:53;7.90;99.90
19206;DHT22;59358;52.134;5.596;2024-01-30T00:32:19;7.90;99.90
19206;DHT22;59358;52.134;5.596;2024-01-30T00:34:46;7.90;99.90
19206;DHT22;59358;52.134;5.596;2024-01-30T00:37:13;7.90;99.90
19206;DHT22;59358;52.134;5.596;2024-01-30T00:39:40;7.90;99.90
19206;DHT22;59358;52.134;5.596;2024-01-30T00:42:08;7.80;99.90
19206;DHT22;59358;52.134;5.596;2024-01-30T00:44:35;7.90;99.90
19206;DHT22;59358;52.134;5.596;2024-01-30T00:47:02;7.90;99.90
19206;DHT22;59358;52.134;5.596;2024-01-30T00:49:29;7.70;99.90
19206;DHT22;59358;52.134;5.596;2024-01-30T00:51:56;7.80;99.90
19206;DHT22;59358;52.134;5.596;2024-01-30T00:54:23;7.70;99.90
19206;DHT22;59358;52.134;5.596;2024-01-30T00:56:49;7.70;99.90
19206;DHT22;59358;52.134;5.596;2024-01-30T00:59:17;7.60;99.90
19206;DHT22;59358;52.134;5.596;2024-01-30T01:01:44;7.60;99.90
19206;DHT22;59358;52.134;5.596;2024-01-30T01:04:11;7.60;99.90
19206;DHT22;59358;52.134;5.596;2024-01-30T01:06:38;7.50;99.90
19206;DHT22;59358;52.134;5.596;2024-01-30T01:09:07;7.50;99.90
19206;DHT22;59358;52.134;5.596;2024-01-30T01:11:34;7.50;99.90
19206;DHT22;59358;52.134;5.596;2024-01-30T01:14:01;7.50;99.90
19206;DHT22;59358;52.134;5.596;2024-01-30T01:16:29;7.50;99.90
19206;DHT22;59358;52.134;5.596;2024-01-30T01:18:56;7.50;99.90
19206;DHT22;59358;52.134;5.596;2024-01-30T01:21:23;7.40;99.90
19206;DHT22;59358;52.134;5.596;2024-01-30T01:23:49;7.40;99.90
19206;DHT22;59358;52.134;5.596;2024-01-30T01:26:16;7.40;99.90
19206;DHT22;59358;52.134;5.596;2024-01-30T01:28:43;7.40;99.90
19206;DHT22;59358;52.134;5.596;2024-01-30T01:31:10;7.30;99.90
19206;DHT22;59358;52.134;5.596;2024-01-30T01:33:38;7.30;99.90
19206;DHT22;59358;52.134;5.596;2024-01-30T01:36:05;7.30;99.90
19206;DHT22;59358;52.134;5.596;2024-01-30T01:38:32;7.30;99.90
19206;DHT22;59358;52.134;5.596;2024-01-30T01:40:58;7.30;99.90
19206;DHT22;59358;52.134;5.596;2024-01-30T01:43:25;7.20;99.90
19206;DHT22;59358;52.134;5.596;2024-01-30T01:45:52;7.20;99.90
19206;DHT22;59358;52.134;5.596;2024-01-30T01:48:19;7.20;99.90
19206;DHT22;59358;52.134;5.596;2024-01-30T01:50:48;7.30;99.90
19206;DHT22;59358;52.134;5.596;2024-01-30T01:53:15;7.20;99.90
19206;DHT22;59358;52.134;5.596;2024-01-30T01:55:42;7.20;99.90
19206;DHT22;59358;52.134;5.596;2024-01-30T01:58:10;7.20;99.90
19206;DHT22;59358;52.134;5.596;2024-01-30T02:00:38;7.20;99.90
19206;DHT22;59358;52.134;5.596;2024-01-30T02:03:08;7.20;99.90
19206;DHT22;59358;52.134;5.596;2024-01-30T02:05:36;7.20;99.90
19206;DHT22;59358;52.134;5.596;2024-01-30T02:08:05;7.10;99.90
19206;DHT22;59358;52.134;5.596;2024-01-30T02:10:33;7.20;99.90
19206;DHT22;59358;52.134;5.596;2024-01-30T02:12:59;7.20;99.90
19206;DHT22;59358;52.134;5.596;2024-01-30T02:15:26;7.20;99.90
19206;DHT22;59358;52.134;5.596;2024-01-30T02:17:54;7.20;99.90
19206;DHT22;59358;52.134;5.596;2024-01-30T02:20:21;7.20;99.90
19206;DHT22;59358;52.134;5.596;2024-01-30T02:22:49;7.20;99.90
19206;DHT22;59358;52.134;5.596;2024-01-30T02:25:17;7.20;99.90
19206;DHT22;59358;52.134;5.596;2024-01-30T02:27:44;7.20;99.90
19206;DHT22;59358;52.134;5.596;2024-01-30T02:30:12;7.30;99.90
19206;DHT22;59358;52.134;5.596;2024-01-30T02:32:38;7.30;99.90
19206;DHT22;59358;52.134;5.596;2024-01-30T02:35:06;7.30;99.90
19206;DHT22;59358;52.134;5.596;2024-01-30T02:37:32;7.40;99.90
19206;DHT22;59358;52.134;5.596;2024-01-30T02:40:00;7.40;99.90
19206;DHT22;59358;52.134;5.596;2024-01-30T02:42:27;7.50;99.90
19206;DHT22;59358;52.134;5.596;2024-01-30T02:44:54;7.50;99.90
19206;DHT22;59358;52.134;5.596;2024-01-30T02:47:21;7.50;99.90
19206;DHT22;59358;52.134;5.596;2024-01-30T02:49:47;7.50;99.90
19206;DHT22;59358;52.134;5.596;2024-01-30T02:52:14;7.50;99.90
19206;DHT22;59358;52.134;5.596;2024-01-30T02:54:41;7.50;99.90
19206;DHT22;59358;52.134;5.596;2024-01-30T02:57:09;7.50;99.90
19206;DHT22;59358;52.134;5.596;2024-01-30T02:59:36;7.60;99.90
19206;DHT22;59358;52.134;5.596;2024-01-30T03:02:03;7.60;99.90
19206;DHT22;59358;52.134;5.596;2024-01-30T03:04:29;7.60;99.90
19206;DHT22;59358;52.134;5.596;2024-01-30T03:06:56;7.60;99.90
19206;DHT22;59358;52.134;5.596;2024-01-30T03:09:23;7.60;99.90
19206;DHT22;59358;52.134;5.596;2024-01-30T03:11:50;7.60;99.90
19206;DHT22;59358;52.134;5.596;2024-01-30T03:14:18;7.60;99.90
19206;DHT22;59358;52.134;5.596;2024-01-30T03:16:44;7.50;99.90
19206;DHT22;59358;52.134;5.596;2024-01-30T03:19:11;7.60;99.90
19206;DHT22;59358;52.134;5.596;2024-01-30T03:21:38;7.50;99.90
19206;DHT22;59358;52.134;5.596;2024-01-30T03:24:05;7.60;99.90
19206;DHT22;59358;52.134;5.596;2024-01-30T03:26:32;7.60;99.90
19206;DHT22;59358;52.134;5.596;2024-01-30T03:28:58;7.60;99.90
19206;DHT22;59358;52.134;5.596;2024-01-30T03:31:27;7.60;99.90
19206;DHT22;59358;52.134;5.596;2024-01-30T03:33:53;7.60;99.90
19206;DHT22;59358;52.134;5.596;2024-01-30T03:36:20;7.60;99.90
19206;DHT22;59358;52.134;5.596;2024-01-30T03:38:47;7.60;99.90
19206;DHT22;59358;52.134;5.596;2024-01-30T03:41:14;7.60;99.90
19206;DHT22;59358;52.134;5.596;2024-01-30T03:43:40;7.70;99.90
19206;DHT22;59358;52.134;5.596;2024-01-30T03:46:07;7.70;99.90
19206;DHT22;59358;52.134;5.596;2024-01-30T03:48:36;7.80;99.90
19206;DHT22;59358;52.134;5.596;2024-01-30T03:51:03;7.80;99.90
19206;DHT22;59358;52.134;5.596;2024-01-30T03:53:30;7.80;99.90
19206;DHT22;59358;52.134;5.596;2024-01-30T03:55:56;7.90;99.90
19206;DHT22;59358;52.134;5.596;2024-01-30T03:58:23;7.90;99.90
19206;DHT22;59358;52.134;5.596;2024-01-30T04:00:50;8.00;99.90
19206;DHT22;59358;52.134;5.596;2024-01-30T04:03:17;8.00;99.90
19206;DHT22;59358;52.134;5.596;2024-01-30T04:05:45;8.10;99.90
19206;DHT22;59358;52.134;5.596;2024-01-30T04:08:12;8.00;99.90
19206;DHT22;59358;52.134;5.596;2024-01-30T04:10:39;8.10;99.90
19206;DHT22;59358;52.134;5.596;2024-01-30T04:13:05;8.10;99.90
19206;DHT22;59358;52.134;5.596;2024-01-30T04:15:32;8.10;99.90
19206;DHT22;59358;52.134;5.596;2024-01-30T04:17:59;8.10;99.90
19206;DHT22;59358;52.134;5.596;2024-01-30T04:20:26;8.10;99.90
19206;DHT22;59358;52.134;5.596;2024-01-30T04:22:54;8.10;99.90
19206;DHT22;59358;52.134;5.596;2024-01-30T04:25:21;8.10;99.90
19206;DHT22;59358;52.134;5.596;2024-01-30T04:27:48;8.10;99.90
19206;DHT22;59358;52.134;5.596;2024-01-30T04:30:15;8.10;99.90
19206;DHT22;59358;52.134;5.596;2024-01-30T04:32:43;8.10;99.90
19206;DHT22;59358;52.134;5.596;2024-01-30T04:35:10;8.10;99.90
19206;DHT22;59358;52.134;5.596;2024-01-30T04:37:37;8.10;99.90
19206;DHT22;59358;52.134;5.596;2024-01-30T04:40:06;8.20;99.90
19206;DHT22;59358;52.134;5.596;2024-01-30T04:42:33;8.20;99.90
19206;DHT22;59358;52.134;5.596;2024-01-30T04:45:00;8.20;99.90
19206;DHT22;59358;52.134;5.596;2024-01-30T04:47:27;8.20;99.90
19206;DHT22;59358;52.134;5.596;2024-01-30T04:49:55;8.20;99.90
19206;DHT22;59358;52.134;5.596;2024-01-30T04:52:21;8.20;99.90
19206;DHT22;59358;52.134;5.596;2024-01-30T04:54:48;8.20;99.90
19206;DHT22;59358;52.134;5.596;2024-01-30T04:57:16;8.30;99.90
19206;DHT22;59358;52.134;5.596;2024-01-30T04:59:43;8.30;99.90
19206;DHT22;59358;52.134;5.596;2024-01-30T05:02:10;8.20;99.90
19206;DHT22;59358;52.134;5.596;2024-01-30T05:04:37;8.30;99.90
19206;DHT22;59358;52.134;5.596;2024-01-30T05:07:04;8.30;99.90
19206;DHT22;59358;52.134;5.596;2024-01-30T05:09:30;8.30;99.90
19206;DHT22;59358;52.134;5.596;2024-01-30T05:11:57;8.30;99.90
19206;DHT22;59358;52.134;5.596;2024-01-30T05:14:25;8.30;99.90
19206;DHT22;59358;52.134;5.596;2024-01-30T05:16:52;8.30;99.90
19206;DHT22;59358;52.134;5.596;2024-01-30T05:19:19;8.30;99.90
19206;DHT22;59358;52.134;5.596;2024-01-30T05:21:46;8.30;99.90
19206;DHT22;59358;52.134;5.596;2024-01-30T05:24:13;8.30;99.90
19206;DHT22;59358;52.134;5.596;2024-01-30T05:26:40;8.30;99.90
19206;DHT22;59358;52.134;5.596;2024-01-30T05:29:07;8.30;99.90
19206;DHT22;59358;52.134;5.596;2024-01-30T05:31:35;8.30;99.90
19206;DHT22;59358;52.134;5.596;2024-01-30T05:34:02;8.40;99.90
19206;DHT22;59358;52.134;5.596;2024-01-30T05:36:29;8.40;99.90
19206;DHT22;59358;52.134;5.596;2024-01-30T05:38:56;8.40;99.90
19206;DHT22;59358;52.134;5.596;2024-01-30T05:41:22;8.40;99.90
19206;DHT22;59358;52.134;5.596;2024-01-30T05:43:49;8.40;99.90
19206;DHT22;59358;52.134;5.596;2024-01-30T05:46:19;8.40;99.90
19206;DHT22;59358;52.134;5.596;2024-01-30T05:48:47;8.40;99.90
19206;DHT22;59358;52.134;5.596;2024-01-30T05:51:14;8.50;99.90
19206;DHT22;59358;52.134;5.596;2024-01-30T05:53:40;8.50;99.90
19206;DHT22;59358;52.134;5.596;2024-01-30T05:56:07;8.50;99.90
19206;DHT22;59358;52.134;5.596;2024-01-30T05:58:34;8.50;99.90
19206;DHT22;59358;52.134;5.596;2024-01-30T06:01:02;8.50;99.90
19206;DHT22;59358;52.134;5.596;2024-01-30T06:03:29;8.50;99.90
19206;DHT22;59358;52.134;5.596;2024-01-30T06:05:57;8.50;99.90
19206;DHT22;59358;52.134;5.596;2024-01-30T06:08:24;8.50;99.90
19206;DHT22;59358;52.134;5.596;2024-01-30T06:10:51;8.60;99.90
19206;DHT22;59358;52.134;5.596;2024-01-30T06:13:17;8.60;99.90
19206;DHT22;59358;52.134;5.596;2024-01-30T06:15:44;8.60;99.90
19206;DHT22;59358;52.134;5.596;2024-01-30T06:18:11;8.50;99.90
19206;DHT22;59358;52.134;5.596;2024-01-30T06:20:38;8.50;99.90
19206;DHT22;59358;52.134;5.596;2024-01-30T06:23:06;8.60;99.90
19206;DHT22;59358;52.134;5.596;2024-01-30T06:25:33;8.50;99.90
19206;DHT22;59358;52.134;5.596;2024-01-30T06:28:00;8.60;99.90
19206;DHT22;59358;52.134;5.596;2024-01-30T06:30:27;8.60;99.90
19206;DHT22;59358;52.134;5.596;2024-01-30T06:32:53;8.60;99.90
19206;DHT22;59358;52.134;5.596;2024-01-30T06:35:20;8.60;99.90
19206;DHT22;59358;52.134;5.596;2024-01-30T06:37:47;8.60;99.90
19206;DHT22;59358;52.134;5.596;2024-01-30T06:40:15;8.70;99.90
19206;DHT22;59358;52.134;5.596;2024-01-30T06:42:42;8.70;99.90
19206;DHT22;59358;52.134;5.596;2024-01-30T06:45:09;8.70;99.90
19206;DHT22;59358;52.134;5.596;2024-01-30T06:47:36;8.70;99.90
19206;DHT22;59358;52.134;5.596;2024-01-30T06:50:03;8.70;99.90
19206;DHT22;59358;52.134;5.596;2024-01-30T06:52:30;8.70;99.90
19206;DHT22;59358;52.134;5.596;2024-01-30T06:54:56;8.70;99.90
19206;DHT22;59358;52.134;5.596;2024-01-30T06:57:25;8.70;99.90
19206;DHT22;59358;52.134;5.596;2024-01-30T06:59:55;8.60;99.90
19206;DHT22;59358;52.134;5.596;2024-01-30T07:02:21;8.80;99.90
19206;DHT22;59358;52.134;5.596;2024-01-30T07:04:48;8.80;99.90
19206;DHT22;59358;52.134;5.596;2024-01-30T07:07:15;8.80;99.90
19206;DHT22;59358;52.134;5.596;2024-01-30T07:09:42;8.80;99.90
19206;DHT22;59358;52.134;5.596;2024-01-30T07:12:09;8.80;99.90
19206;DHT22;59358;52.134;5.596;2024-01-30T07:14:37;8.80;99.90
19206;DHT22;59358;52.134;5.596;2024-01-30T07:17:04;8.90;99.90
19206;DHT22;59358;52.134;5.596;2024-01-30T07:19:31;8.90;99.90
19206;DHT22;59358;52.134;5.596;2024-01-30T07:21:58;8.90;99.90
19206;DHT22;59358;52.134;5.596;2024-01-30T07:24:25;8.90;99.90
19206;DHT22;59358;52.134;5.596;2024-01-30T07:26:52;8.90;99.90
19206;DHT22;59358;52.134;5.596;2024-01-30T07:29:19;8.90;99.90
19206;DHT22;59358;52.134;5.596;2024-01-30T07:31:48;8.90;99.90
19206;DHT22;59358;52.134;5.596;2024-01-30T07:34:15;8.90;99.90
19206;DHT22;59358;52.134;5.596;2024-01-30T07:36:42;9.00;99.90
19206;DHT22;59358;52.134;5.596;2024-01-30T07:39:09;9.00;99.90
19206;DHT22;59358;52.134;5.596;2024-01-30T07:41:36;9.00;99.90
19206;DHT22;59358;52.134;5.596;2024-01-30T07:44:03;9.00;99.90
19206;DHT22;59358;52.134;5.596;2024-01-30T07:46:30;9.00;99.90
19206;DHT22;59358;52.134;5.596;2024-01-30T07:48:58;9.10;99.90
19206;DHT22;59358;52.134;5.596;2024-01-30T07:51:25;9.30;99.90
19206;DHT22;59358;52.134;5.596;2024-01-30T07:53:57;9.20;99.90
19206;DHT22;59358;52.134;5.596;2024-01-30T07:56:24;9.30;99.90
19206;DHT22;59358;52.134;5.596;2024-01-30T07:58:51;9.30;99.90
19206;DHT22;59358;52.134;5.596;2024-01-30T08:01:18;9.40;99.90
19206;DHT22;59358;52.134;5.596;2024-01-30T08:03:45;9.50;99.90
19206;DHT22;59358;52.134;5.596;2024-01-30T08:06:14;9.60;99.90
19206;DHT22;59358;52.134;5.596;2024-01-30T08:08:40;9.60;99.90
19206;DHT22;59358;52.134;5.596;2024-01-30T08:11:07;9.60;99.90
19206;DHT22;59358;52.134;5.596;2024-01-30T08:13:34;9.70;99.90
19206;DHT22;59358;52.134;5.596;2024-01-30T08:16:01;9.80;99.90
19206;DHT22;59358;52.134;5.596;2024-01-30T08:18:27;9.80;99.90
19206;DHT22;59358;52.134;5.596;2024-01-30T08:20:54;9.90;99.90
19206;DHT22;59358;52.134;5.596;2024-01-30T08:23:22;9.90;99.90
19206;DHT22;59358;52.134;5.596;2024-01-30T08:25:49;10.00;99.90
19206;DHT22;59358;52.134;5.596;2024-01-30T08:28:16;10.00;99.90
19206;DHT22;59358;52.134;5.596;2024-01-30T08:30:43;10.00;99.90
19206;DHT22;59358;52.134;5.596;2024-01-30T08:33:10;10.00;99.90
19206;DHT22;59358;52.134;5.596;2024-01-30T08:35:37;10.00;99.90
19206;DHT22;59358;52.134;5.596;2024-01-30T08:38:04;10.00;99.90
19206;DHT22;59358;52.134;5.596;2024-01-30T08:40:32;10.00;99.90
19206;DHT22;59358;52.134;5.596;2024-01-30T08:42:59;10.10;99.90
19206;DHT22;59358;52.134;5.596;2024-01-30T08:45:26;10.10;99.90
19206;DHT22;59358;52.134;5.596;2024-01-30T08:47:53;10.10;99.90
19206;DHT22;59358;52.134;5.596;2024-01-30T08:50:19;10.20;99.90
19206;DHT22;59358;52.134;5.596;2024-01-30T08:52:46;10.20;99.90
19206;DHT22;59358;52.134;5.596;2024-01-30T08:55:13;10.20;99.90
19206;DHT22;59358;52.134;5.596;2024-01-30T08:57:41;10.20;99.90
19206;DHT22;59358;52.134;5.596;2024-01-30T09:00:09;10.30;99.90
19206;DHT22;59358;52.134;5.596;2024-01-30T09:02:36;10.30;99.90
19206;DHT22;59358;52.134;5.596;2024-01-30T09:05:04;10.40;99.90
19206;DHT22;59358;52.134;5.596;2024-01-30T09:07:31;10.40;99.90
19206;DHT22;59358;52.134;5.596;2024-01-30T09:09:57;10.40;99.90
19206;DHT22;59358;52.134;5.596;2024-01-30T09:12:24;10.40;99.90
19206;DHT22;59358;52.134;5.596;2024-01-30T09:14:53;10.40;99.90
19206;DHT22;59358;52.134;5.596;2024-01-30T09:17:20;10.50;99.90
19206;DHT22;59358;52.134;5.596;2024-01-30T09:19:47;10.50;99.90
19206;DHT22;59358;52.134;5.596;2024-01-30T09:22:14;10.50;99.90
19206;DHT22;59358;52.134;5.596;2024-01-30T09:24:41;10.50;99.90
19206;DHT22;59358;52.134;5.596;2024-01-30T09:27:08;10.50;99.90
19206;DHT22;59358;52.134;5.596;2024-01-30T09:29:34;10.60;99.90
19206;DHT22;59358;52.134;5.596;2024-01-30T09:32:04;10.70;99.90
19206;DHT22;59358;52.134;5.596;2024-01-30T09:34:31;10.70;99.90
19206;DHT22;59358;52.134;5.596;2024-01-30T09:36:58;10.70;99.90
19206;DHT22;59358;52.134;5.596;2024-01-30T09:39:25;10.80;99.90
19206;DHT22;59358;52.134;5.596;2024-01-30T09:42:02;10.90;99.90
19206;DHT22;59358;52.134;5.596;2024-01-30T09:44:29;10.90;99.90
19206;DHT22;59358;52.134;5.596;2024-01-30T09:46:56;11.00;99.90
19206;DHT22;59358;52.134;5.596;2024-01-30T09:49:31;11.00;99.90
19206;DHT22;59358;52.134;5.596;2024-01-30T09:51:58;11.00;99.90
19206;DHT22;59358;52.134;5.596;2024-01-30T09:54:25;11.10;99.90
19206;DHT22;59358;52.134;5.596;2024-01-30T09:56:52;11.00;99.90
19206;DHT22;59358;52.134;5.596;2024-01-30T09:59:23;11.00;99.90
19206;DHT22;59358;52.134;5.596;2024-01-30T10:01:50;11.00;99.90
19206;DHT22;59358;52.134;5.596;2024-01-30T10:04:17;11.10;99.90
19206;DHT22;59358;52.134;5.596;2024-01-30T10:06:46;11.20;99.90
19206;DHT22;59358;52.134;5.596;2024-01-30T10:09:17;11.20;99.90
19206;DHT22;59358;52.134;5.596;2024-01-30T10:11:44;11.30;99.90
19206;DHT22;59358;52.134;5.596;2024-01-30T10:14:11;11.40;99.90
19206;DHT22;59358;52.134;5.596;2024-01-30T10:16:38;11.40;99.90
19206;DHT22;59358;52.134;5.596;2024-01-30T10:19:05;11.50;99.90
19206;DHT22;59358;52.134;5.596;2024-01-30T10:21:32;11.60;99.90
19206;DHT22;59358;52.134;5.596;2024-01-30T10:24:00;11.60;99.90
19206;DHT22;59358;52.134;5.596;2024-01-30T10:26:27;11.60;99.90
19206;DHT22;59358;52.134;5.596;2024-01-30T10:28:54;11.70;99.90
19206;DHT22;59358;52.134;5.596;2024-01-30T10:31:21;11.60;99.90
19206;DHT22;59358;52.134;5.596;2024-01-30T10:33:49;11.80;99.90
19206;DHT22;59358;52.134;5.596;2024-01-30T10:36:17;11.80;99.90
19206;DHT22;59358;52.134;5.596;2024-01-30T10:38:45;11.80;99.90
19206;DHT22;59358;52.134;5.596;2024-01-30T10:41:18;11.90;99.90
19206;DHT22;59358;52.134;5.596;2024-01-30T10:43:53;12.00;99.90
19206;DHT22;59358;52.134;5.596;2024-01-30T10:46:24;12.10;99.90
19206;DHT22;59358;52.134;5.596;2024-01-30T10:48:57;12.20;99.90
19206;DHT22;59358;52.134;5.596;2024-01-30T10:51:25;12.20;99.90
19206;DHT22;59358;52.134;5.596;2024-01-30T10:53:53;12.20;99.90
19206;DHT22;59358;52.134;5.596;2024-01-30T10:56:21;12.20;99.90
19206;DHT22;59358;52.134;5.596;2024-01-30T10:58:49;12.30;99.90
19206;DHT22;59358;52.134;5.596;2024-01-30T11:01:16;12.20;99.90
19206;DHT22;59358;52.134;5.596;2024-01-30T11:03:44;12.20;99.90
19206;DHT22;59358;52.134;5.596;2024-01-30T11:06:11;12.20;99.90
19206;DHT22;59358;52.134;5.596;2024-01-30T11:08:39;12.30;99.90
19206;DHT22;59358;52.134;5.596;2024-01-30T11:11:09;12.20;99.90
19206;DHT22;59358;52.134;5.596;2024-01-30T11:13:37;12.10;99.90
19206;DHT22;59358;52.134;5.596;2024-01-30T11:16:05;12.20;99.90
19206;DHT22;59358;52.134;5.596;2024-01-30T11:18:33;12.10;99.90
19206;DHT22;59358;52.134;5.596;2024-01-30T11:21:05;12.00;99.90
19206;DHT22;59358;52.134;5.596;2024-01-30T11:23:33;12.00;99.90
19206;DHT22;59358;52.134;5.596;2024-01-30T11:26:00;12.10;99.90
19206;DHT22;59358;52.134;5.596;2024-01-30T11:28:32;12.20;99.90
19206;DHT22;59358;52.134;5.596;2024-01-30T11:31:04;12.30;99.90
19206;DHT22;59358;52.134;5.596;2024-01-30T11:33:32;12.40;99.90
19206;DHT22;59358;52.134;5.596;2024-01-30T11:36:00;12.30;99.90
19206;DHT22;59358;52.134;5.596;2024-01-30T11:38:28;12.30;99.90
19206;DHT22;59358;52.134;5.596;2024-01-30T11:40:55;12.10;99.90
19206;DHT22;59358;52.134;5.596;2024-01-30T11:43:23;12.00;99.90
19206;DHT22;59358;52.134;5.596;2024-01-30T11:45:50;12.00;99.90
19206;DHT22;59358;52.134;5.596;2024-01-30T11:48:18;12.00;99.90
19206;DHT22;59358;52.134;5.596;2024-01-30T11:50:46;11.90;99.90
19206;DHT22;59358;52.134;5.596;2024-01-30T11:53:13;11.90;99.90
19206;DHT22;59358;52.134;5.596;2024-01-30T11:55:39;11.80;99.90
19206;DHT22;59358;52.134;5.596;2024-01-30T11:58:06;11.80;99.90
19206;DHT22;59358;52.134;5.596;2024-01-30T12:00:33;11.80;99.90
19206;DHT22;59358;52.134;5.596;2024-01-30T12:03:05;11.90;99.90
19206;DHT22;59358;52.134;5.596;2024-01-30T12:05:33;11.90;99.90
19206;DHT22;59358;52.134;5.596;2024-01-30T12:08:01;11.80;99.90
19206;DHT22;59358;52.134;5.596;2024-01-30T12:10:28;11.70;99.90
19206;DHT22;59358;52.134;5.596;2024-01-30T12:12:55;11.70;99.90
19206;DHT22;59358;52.134;5.596;2024-01-30T12:15:22;11.60;99.90
19206;DHT22;59358;52.134;5.596;2024-01-30T12:17:49;11.60;99.90
19206;DHT22;59358;52.134;5.596;2024-01-30T12:20:18;11.80;99.90
19206;DHT22;59358;52.134;5.596;2024-01-30T12:22:49;11.90;99.90
19206;DHT22;59358;52.134;5.596;2024-01-30T12:25:17;12.00;99.90
19206;DHT22;59358;52.134;5.596;2024-01-30T12:27:46;12.20;99.90
19206;DHT22;59358;52.134;5.596;2024-01-30T12:30:15;12.30;99.90
19206;DHT22;59358;52.134;5.596;2024-01-30T12:32:44;12.20;99.90
19206;DHT22;59358;52.134;5.596;2024-01-30T12:35:11;12.10;99.90
19206;DHT22;59358;52.134;5.596;2024-01-30T12:37:38;11.60;99.90
19206;DHT22;59358;52.134;5.596;2024-01-30T12:40:08;11.30;99.90
19206;DHT22;59358;52.134;5.596;2024-01-30T12:42:35;11.10;99.90
19206;DHT22;59358;52.134;5.596;2024-01-30T12:45:03;11.10;99.90
19206;DHT22;59358;52.134;5.596;2024-01-30T12:47:30;11.00;99.90
19206;DHT22;59358;52.134;5.596;2024-01-30T12:49:57;10.90;99.90
19206;DHT22;59358;52.134;5.596;2024-01-30T12:52:24;10.70;99.90
19206;DHT22;59358;52.134;5.596;2024-01-30T12:54:51;10.60;99.90
19206;DHT22;59358;52.134;5.596;2024-01-30T12:57:20;10.60;99.90
19206;DHT22;59358;52.134;5.596;2024-01-30T12:59:47;10.70;99.90
19206;DHT22;59358;52.134;5.596;2024-01-30T13:02:15;10.60;99.90
19206;DHT22;59358;52.134;5.596;2024-01-30T13:04:42;10.40;99.90
19206;DHT22;59358;52.134;5.596;2024-01-30T13:07:09;10.40;99.90
19206;DHT22;59358;52.134;5.596;2024-01-30T13:09:36;10.40;99.90
19206;DHT22;59358;52.134;5.596;2024-01-30T13:12:04;10.30;99.90
19206;DHT22;59358;52.134;5.596;2024-01-30T13:14:32;10.20;99.90
19206;DHT22;59358;52.134;5.596;2024-01-30T13:16:59;10.30;99.90
19206;DHT22;59358;52.134;5.596;2024-01-30T13:19:26;10.30;99.90
19206;DHT22;59358;52.134;5.596;2024-01-30T13:21:52;10.30;99.90
19206;DHT22;59358;52.134;5.596;2024-01-30T13:24:19;10.30;99.90
19206;DHT22;59358;52.134;5.596;2024-01-30T13:26:47;10.40;99.90
19206;DHT22;59358;52.134;5.596;2024-01-30T13:29:13;10.40;99.90
19206;DHT22;59358;52.134;5.596;2024-01-30T13:31:42;10.40;99.90
19206;DHT22;59358;52.134;5.596;2024-01-30T13:34:09;10.40;99.90
19206;DHT22;59358;52.134;5.596;2024-01-30T13:36:36;10.40;99.90
19206;DHT22;59358;52.134;5.596;2024-01-30T13:39:03;10.50;99.90
19206;DHT22;59358;52.134;5.596;2024-01-30T13:41:32;10.40;99.90
19206;DHT22;59358;52.134;5.596;2024-01-30T13:43:59;10.30;99.90
19206;DHT22;59358;52.134;5.596;2024-01-30T13:46:28;10.20;99.90
19206;DHT22;59358;52.134;5.596;2024-01-30T13:48:57;10.20;99.90
19206;DHT22;59358;52.134;5.596;2024-01-30T13:51:23;10.20;99.90
19206;DHT22;59358;52.134;5.596;2024-01-30T13:53:50;10.20;99.90
19206;DHT22;59358;52.134;5.596;2024-01-30T13:56:17;10.00;99.90
19206;DHT22;59358;52.134;5.596;2024-01-30T13:58:44;9.90;99.90
19206;DHT22;59358;52.134;5.596;2024-01-30T14:01:11;9.70;99.90
19206;DHT22;59358;52.134;5.596;2024-01-30T14:03:38;9.50;99.90
19206;DHT22;59358;52.134;5.596;2024-01-30T14:06:06;9.50;99.90
19206;DHT22;59358;52.134;5.596;2024-01-30T14:08:33;9.40;99.90
19206;DHT22;59358;52.134;5.596;2024-01-30T14:11:00;9.40;99.90
19206;DHT22;59358;52.134;5.596;2024-01-30T14:13:26;9.30;99.90
19206;DHT22;59358;52.134;5.596;2024-01-30T14:15:53;9.40;99.90
19206;DHT22;59358;52.134;5.596;2024-01-30T14:18:20;9.40;99.90
19206;DHT22;59358;52.134;5.596;2024-01-30T14:20:47;9.50;99.90
19206;DHT22;59358;52.134;5.596;2024-01-30T14:23:17;9.50;99.90
19206;DHT22;59358;52.134;5.596;2024-01-30T14:25:44;9.30;99.90
19206;DHT22;59358;52.134;5.596;2024-01-30T14:28:11;9.40;99.90
19206;DHT22;59358;52.134;5.596;2024-01-30T14:30:38;9.40;99.90
19206;DHT22;59358;52.134;5.596;2024-01-30T14:33:05;9.40;99.90
19206;DHT22;59358;52.134;5.596;2024-01-30T14:35:32;9.60;99.90
19206;DHT22;59358;52.134;5.596;2024-01-30T14:38:00;9.60;99.90
19206;DHT22;59358;52.134;5.596;2024-01-30T14:40:31;9.60;99.90
19206;DHT22;59358;52.134;5.596;2024-01-30T14:42:58;9.60;99.90
19206;DHT22;59358;52.134;5.596;2024-01-30T14:45:27;9.50;99.90
19206;DHT22;59358;52.134;5.596;2024-01-30T14:47:54;9.50;99.90
19206;DHT22;59358;52.134;5.596;2024-01-30T14:50:22;9.50;99.90
19206;DHT22;59358;52.134;5.596;2024-01-30T14:52:48;9.50;99.90
19206;DHT22;59358;52.134;5.596;2024-01-30T14:55:15;9.60;99.90
19206;DHT22;59358;52.134;5.596;2024-01-30T14:57:44;9.30;99.90
19206;DHT22;59358;52.134;5.596;2024-01-30T15:00:12;9.10;99.90
19206;DHT22;59358;52.134;5.596;2024-01-30T15:02:40;9.10;99.90
19206;DHT22;59358;52.134;5.596;2024-01-30T15:05:06;9.00;99.90
19206;DHT22;59358;52.134;5.596;2024-01-30T15:07:36;8.90;99.90
19206;DHT22;59358;52.134;5.596;2024-01-30T15:10:03;8.90;99.90
19206;DHT22;59358;52.134;5.596;2024-01-30T15:12:30;8.90;99.90
19206;DHT22;59358;52.134;5.596;2024-01-30T15:14:58;8.90;99.90
19206;DHT22;59358;52.134;5.596;2024-01-30T15:17:25;8.80;99.90
19206;DHT22;59358;52.134;5.596;2024-01-30T15:19:52;8.70;99.90
19206;DHT22;59358;52.134;5.596;2024-01-30T15:22:18;8.60;99.90
19206;DHT22;59358;52.134;5.596;2024-01-30T15:24:45;8.60;99.90
19206;DHT22;59358;52.134;5.596;2024-01-30T15:27:12;8.50;99.90
19206;DHT22;59358;52.134;5.596;2024-01-30T15:29:39;8.50;99.90
19206;DHT22;59358;52.134;5.596;2024-01-30T15:32:07;8.50;99.90
19206;DHT22;59358;52.134;5.596;2024-01-30T15:34:34;8.50;99.90
19206;DHT22;59358;52.134;5.596;2024-01-30T15:37:01;8.50;99.90
19206;DHT22;59358;52.134;5.596;2024-01-30T15:39:28;8.50;99.90